Time;durP1;ratioP1;P1;durP2;ratioP2;P2;SDS_P1;SDS_P2;PMS_P1;PMS_P2;Temp;Humidity;BMP_temperature;BMP_pressure;BME280_temperature;BME280_humidity;BME280_pressure;Samples;Min_cycle;Max_cycle;Signal;HPM_P1;HPM_P2
2022/01/27 00:01:19;;;;;;;8.50;4.18;;;-4.70;99.90;;;;;;2090692;28;20258;-74
2022/01/27 00:02:43;;;;;;;7.50;4.63;;;-4.70;99.90;;;;;;2090241;28;20173;-73
2022/01/27 00:04:00;;;;;;;10.20;5.03;;;-4.60;99.90;;;;;;2090160;28;20180;-74
2022/01/27 00:05:25;;;;;;;7.32;4.03;;;-4.60;99.90;;;;;;2090460;28;20202;-73
2022/01/27 00:06:22;;;;;;;8.40;3.90;;;-4.70;99.90;;;;;;2089759;28;20184;-73
2022/01/27 00:07:23;;;;;;;8.27;4.53;;;-4.70;99.90;;;;;;2090258;28;20180;-73
2022/01/27 00:08:29;;;;;;;9.68;4.88;;;-4.70;99.90;;;;;;2090747;28;20192;-73
2022/01/27 00:09:45;;;;;;;8.38;4.65;;;-4.70;99.90;;;;;;2089932;28;20173;-73
2022/01/27 00:11:52;;;;;;;9.63;4.95;;;-4.60;99.90;;;;;;2082406;28;20215;-72
2022/01/27 00:12:55;;;;;;;12.50;5.80;;;-4.60;99.90;;;;;;2090847;28;20763;-72
2022/01/27 00:13:59;;;;;;;11.98;5.80;;;-4.50;99.90;;;;;;2098043;28;20201;-73
2022/01/27 00:15:10;;;;;;;9.55;5.07;;;-4.60;99.90;;;;;;2089801;28;20239;-72
2022/01/27 00:16:27;;;;;;;7.47;4.68;;;-4.60;99.90;;;;;;2090097;28;20277;-73
2022/01/27 00:17:31;;;;;;;10.23;4.93;;;-4.70;99.90;;;;;;2098023;28;20236;-73
2022/01/27 00:18:32;;;;;;;10.20;5.32;;;-4.70;99.90;;;;;;2090024;28;20179;-73
2022/01/27 00:19:33;;;;;;;8.00;4.75;;;-4.70;99.90;;;;;;2089976;28;20188;-72
2022/01/27 00:20:34;;;;;;;12.77;5.37;;;-4.70;99.90;;;;;;2090587;28;20196;-73
2022/01/27 00:21:34;;;;;;;10.37;6.00;;;-4.70;99.90;;;;;;2090632;28;20165;-73
2022/01/27 00:22:35;;;;;;;11.67;5.77;;;-4.60;99.90;;;;;;2090454;28;20169;-73
2022/01/27 00:23:37;;;;;;;8.03;4.73;;;-4.60;99.90;;;;;;2090044;28;20180;-74
2022/01/27 00:24:37;;;;;;;9.15;4.85;;;-4.60;99.90;;;;;;2089794;28;20724;-73
2022/01/27 00:25:38;;;;;;;7.73;4.30;;;-4.60;99.90;;;;;;2089991;28;20276;-73
2022/01/27 00:26:40;;;;;;;20.83;5.40;;;-4.70;99.90;;;;;;2081553;28;20240;-73
2022/01/27 00:27:40;;;;;;;9.75;5.47;;;-4.70;99.90;;;;;;2081534;28;20181;-72
2022/01/27 00:28:43;;;;;;;11.50;4.90;;;-4.70;99.90;;;;;;2081501;28;20189;-73
2022/01/27 00:29:43;;;;;;;10.50;5.75;;;-4.80;99.90;;;;;;2073469;28;20185;-72
2022/01/27 00:30:44;;;;;;;9.13;4.80;;;-4.70;99.90;;;;;;2081394;28;20212;-73
2022/01/27 00:31:45;;;;;;;12.33;6.00;;;-4.80;99.90;;;;;;2089802;28;20652;-73
2022/01/27 00:32:46;;;;;;;8.53;4.93;;;-4.80;99.90;;;;;;2089843;28;20731;-72
2022/01/27 00:33:48;;;;;;;13.37;5.50;;;-4.80;99.90;;;;;;2089707;28;20211;-72
2022/01/27 00:34:48;;;;;;;9.38;5.20;;;-4.90;99.90;;;;;;2081675;28;20185;-72
2022/01/27 00:35:50;;;;;;;14.03;5.47;;;-4.90;99.90;;;;;;2089848;28;20650;-72
2022/01/27 00:36:51;;;;;;;10.25;4.70;;;-4.80;99.90;;;;;;2089832;28;20225;-73
2022/01/27 00:37:51;;;;;;;6.93;4.10;;;-4.80;99.90;;;;;;2089915;28;20249;-73
2022/01/27 00:38:52;;;;;;;10.30;4.57;;;-4.80;99.90;;;;;;2089697;28;20184;-72
2022/01/27 00:39:53;;;;;;;11.03;5.10;;;-4.80;99.90;;;;;;2089851;28;20321;-72
2022/01/27 00:40:54;;;;;;;9.98;4.97;;;-4.90;99.90;;;;;;2089587;28;20192;-72
2022/01/27 00:41:55;;;;;;;10.37;4.93;;;-4.90;99.90;;;;;;2089619;28;20258;-72
2022/01/27 00:42:55;;;;;;;12.10;5.33;;;-4.80;99.90;;;;;;2089763;28;20314;-72
2022/01/27 00:43:56;;;;;;;8.93;4.70;;;-4.80;99.90;;;;;;2081330;28;20177;-72
2022/01/27 00:44:58;;;;;;;9.48;5.50;;;-4.80;99.90;;;;;;2089599;28;20633;-72
2022/01/27 00:45:59;;;;;;;11.10;5.25;;;-4.90;99.90;;;;;;2089804;28;20192;-72
2022/01/27 00:46:59;;;;;;;10.03;4.97;;;-4.90;99.90;;;;;;2081544;28;20208;-72
2022/01/27 00:48:03;;;;;;;13.87;4.90;;;-4.90;99.90;;;;;;2089986;28;20195;-72
2022/01/27 00:49:04;;;;;;;9.13;4.60;;;-4.90;99.90;;;;;;2089629;28;20241;-73
2022/01/27 00:50:05;;;;;;;10.83;4.93;;;-4.80;99.90;;;;;;2081548;28;20612;-73
2022/01/27 00:51:08;;;;;;;10.23;5.15;;;-4.90;99.90;;;;;;2089627;28;20684;-72
2022/01/27 00:52:14;;;;;;;10.02;4.65;;;-4.80;99.90;;;;;;2097680;28;20184;-73
2022/01/27 00:53:45;;;;;;;9.38;4.60;;;-4.80;99.90;;;;;;2090305;28;20173;-72
2022/01/27 00:54:36;;;;;;;6.80;3.60;;;-4.70;99.90;;;;;;2089087;28;20222;-72
2022/01/27 00:55:41;;;;;;;9.53;4.50;;;-4.80;99.90;;;;;;2089886;28;20176;-72
2022/01/27 00:59:21;;;;;;;9.00;4.40;;;-4.70;99.90;;;;;;2089655;28;20648;-73
2022/01/27 01:00:28;;;;;;;7.22;3.90;;;-4.70;99.90;;;;;;2086040;28;20207;-72
2022/01/27 01:01:35;;;;;;;9.48;4.72;;;-4.80;99.90;;;;;;2082175;28;20582;-72
2022/01/27 01:02:48;;;;;;;12.93;4.53;;;-4.80;99.90;;;;;;2090588;28;20164;-73
2022/01/27 01:03:51;;;;;;;12.70;5.10;;;-4.90;99.90;;;;;;2089396;28;20247;-72
2022/01/27 01:05:08;;;;;;;9.13;4.65;;;-5.00;99.90;;;;;;2089634;28;20211;-72
2022/01/27 01:07:33;;;;;;;10.65;4.70;;;-5.00;99.90;;;;;;2089603;28;20168;-73
2022/01/27 01:10:33;;;;;;;7.78;3.67;;;-5.00;99.90;;;;;;2089744;28;20576;-73
2022/01/27 01:15:24;;;;;;;6.78;4.38;;;-5.00;99.90;;;;;;2071750;28;20206;-73
2022/01/27 01:16:48;;;;;;;10.02;4.32;;;-5.00;99.90;;;;;;2072461;28;20209;-71
2022/01/27 01:17:58;;;;;;;6.68;3.80;;;-5.10;99.90;;;;;;2072876;28;20176;-72
2022/01/27 01:33:10;;;;;;;5.63;2.97;;;-5.10;99.90;;;;;;2097824;28;20186;-73
2022/01/27 01:35:10;;;;;;;5.40;2.83;;;-5.10;99.90;;;;;;2097419;28;20577;-73
2022/01/27 01:36:26;;;;;;;5.18;2.85;;;-5.10;99.90;;;;;;2097808;28;20223;-73
2022/01/27 01:37:27;;;;;;;5.70;2.47;;;-5.10;99.90;;;;;;2097700;28;20716;-73
2022/01/27 01:38:30;;;;;;;4.60;2.90;;;-5.00;99.90;;;;;;2091339;28;20181;-73
2022/01/27 01:39:34;;;;;;;6.38;3.47;;;-5.00;99.90;;;;;;2089596;28;20973;-73
2022/01/27 01:40:35;;;;;;;6.10;3.08;;;-5.00;99.90;;;;;;2089938;28;20197;-73
2022/01/27 01:41:36;;;;;;;6.03;3.00;;;-5.00;99.90;;;;;;2097613;28;20202;-73
2022/01/27 01:42:36;;;;;;;4.97;2.83;;;-5.00;99.90;;;;;;2097666;28;20172;-74
2022/01/27 01:43:37;;;;;;;7.00;3.13;;;-5.00;99.90;;;;;;2089214;28;20239;-72
2022/01/27 01:44:39;;;;;;;5.23;2.53;;;-5.00;99.90;;;;;;2089182;28;20176;-74
2022/01/27 01:45:40;;;;;;;6.18;2.95;;;-5.00;99.90;;;;;;2089478;28;20264;-72
2022/01/27 01:46:40;;;;;;;7.50;3.37;;;-5.00;99.90;;;;;;2097177;28;20579;-73
2022/01/27 01:47:41;;;;;;;5.43;2.90;;;-5.10;99.90;;;;;;2097652;28;20530;-72
2022/01/27 01:48:42;;;;;;;5.83;3.03;;;-5.10;99.90;;;;;;2097542;28;20180;-73
2022/01/27 01:49:42;;;;;;;5.63;2.97;;;-5.10;99.90;;;;;;2098044;28;20180;-73
2022/01/27 01:50:44;;;;;;;5.80;2.87;;;-5.00;99.90;;;;;;2089155;28;20672;-72
2022/01/27 01:51:45;;;;;;;5.80;3.00;;;-5.00;99.90;;;;;;2081125;28;20235;-72
2022/01/27 01:52:46;;;;;;;5.57;3.47;;;-5.10;99.90;;;;;;2097438;28;20626;-72
2022/01/27 01:53:46;;;;;;;6.57;3.30;;;-5.10;99.90;;;;;;2097069;28;20188;-73
2022/01/27 01:54:47;;;;;;;6.00;2.83;;;-5.10;99.90;;;;;;2089074;28;20173;-73
2022/01/27 01:55:48;;;;;;;7.13;3.30;;;-5.20;99.90;;;;;;2089361;28;20176;-72
2022/01/27 01:56:49;;;;;;;4.40;2.80;;;-5.20;99.90;;;;;;2097668;28;20624;-73
2022/01/27 01:57:51;;;;;;;4.60;2.95;;;-5.20;99.90;;;;;;2097558;28;20923;-72
2022/01/27 01:58:52;;;;;;;6.25;3.45;;;-5.20;99.90;;;;;;2089443;28;20184;-72
2022/01/27 01:59:53;;;;;;;6.45;2.78;;;-5.10;99.90;;;;;;2089400;28;20184;-72
2022/01/27 02:00:54;;;;;;;4.37;2.83;;;-5.20;99.90;;;;;;2097658;28;20309;-72
2022/01/27 02:01:54;;;;;;;5.80;3.00;;;-5.20;99.90;;;;;;2098072;28;20218;-74
2022/01/27 02:02:56;;;;;;;5.57;2.50;;;-5.20;99.90;;;;;;2097568;28;20182;-72
2022/01/27 02:03:59;;;;;;;4.22;2.53;;;-5.20;99.90;;;;;;2097350;28;20233;-73
2022/01/27 02:04:59;;;;;;;6.07;3.15;;;-5.20;99.90;;;;;;2097248;28;20184;-71
2022/01/27 02:06:00;;;;;;;6.73;2.80;;;-5.20;99.90;;;;;;2097532;28;20180;-72
2022/01/27 02:07:04;;;;;;;5.83;3.30;;;-5.20;99.90;;;;;;2098060;28;20180;-72
2022/01/27 02:09:47;;;;;;;4.15;2.47;;;-5.10;99.90;;;;;;2097470;28;20190;-72
2022/01/27 02:19:01;;;;;;;3.97;2.35;;;-5.40;99.90;;;;;;2097986;28;20182;-72
2022/01/27 02:20:04;;;;;;;4.47;2.30;;;-5.30;99.90;;;;;;2097372;28;20190;-72
2022/01/27 02:21:05;;;;;;;3.30;2.30;;;-5.30;99.90;;;;;;2089343;28;20188;-75
2022/01/27 02:22:06;;;;;;;4.63;2.40;;;-5.20;99.90;;;;;;2097323;28;20262;-74
2022/01/27 02:23:09;;;;;;;4.27;2.27;;;-5.20;99.90;;;;;;2097457;28;20178;-73
2022/01/27 02:24:10;;;;;;;4.50;2.78;;;-5.20;99.90;;;;;;2089511;28;20188;-72
2022/01/27 02:25:11;;;;;;;4.80;2.20;;;-5.20;99.90;;;;;;2088926;28;20667;-72
2022/01/27 02:26:12;;;;;;;4.70;2.40;;;-5.20;99.90;;;;;;2089150;28;20191;-72
2022/01/27 02:27:15;;;;;;;3.43;1.83;;;-5.20;99.90;;;;;;2088870;28;20188;-72
2022/01/27 02:28:16;;;;;;;3.75;2.00;;;-5.20;99.90;;;;;;2089366;28;20177;-72
2022/01/27 02:29:20;;;;;;;5.93;2.60;;;-5.20;99.90;;;;;;2089033;28;20199;-72
2022/01/27 02:30:22;;;;;;;2.83;1.90;;;-5.30;99.90;;;;;;2089539;28;20668;-72
2022/01/27 02:31:23;;;;;;;3.47;2.08;;;-5.20;99.90;;;;;;2097426;28;20206;-72
2022/01/27 02:32:24;;;;;;;4.33;2.13;;;-5.20;99.90;;;;;;2098021;28;20180;-72
2022/01/27 02:33:32;;;;;;;4.32;2.45;;;-5.20;99.90;;;;;;2089002;28;20180;-72
2022/01/27 02:34:34;;;;;;;2.30;1.60;;;-5.20;99.90;;;;;;2090858;28;20225;-72
2022/01/27 02:35:35;;;;;;;4.65;1.98;;;-5.20;99.90;;;;;;2097303;28;20172;-73
2022/01/27 02:36:36;;;;;;;3.70;2.03;;;-5.20;99.90;;;;;;2089186;28;20192;-73
2022/01/27 02:37:37;;;;;;;2.33;1.50;;;-5.20;99.90;;;;;;2097415;28;20656;-73
2022/01/27 02:38:37;;;;;;;3.95;2.05;;;-5.10;99.90;;;;;;2097533;28;20203;-72
2022/01/27 02:39:39;;;;;;;2.83;1.80;;;-5.10;99.90;;;;;;2089038;28;20184;-73
2022/01/27 02:40:48;;;;;;;4.95;1.95;;;-5.00;99.90;;;;;;2080917;28;20193;-72
2022/01/27 02:41:49;;;;;;;4.15;2.08;;;-4.90;99.90;;;;;;2090453;28;20697;-73
2022/01/27 02:42:49;;;;;;;2.67;2.40;;;-4.90;99.90;;;;;;2098201;28;20176;-73
2022/01/27 02:43:50;;;;;;;5.17;2.17;;;-4.90;99.90;;;;;;2097593;28;20203;-73
2022/01/27 02:45:06;;;;;;;2.63;1.90;;;-4.90;99.90;;;;;;2097443;28;20271;-73
2022/01/27 02:46:09;;;;;;;4.15;1.88;;;-4.90;99.90;;;;;;2097362;28;20640;-73
2022/01/27 02:47:15;;;;;;;3.22;1.80;;;-4.90;99.90;;;;;;2081141;28;20212;-73
2022/01/27 02:48:16;;;;;;;4.43;2.10;;;-5.00;99.90;;;;;;2089769;28;20610;-73
2022/01/27 02:49:16;;;;;;;4.50;2.50;;;-5.10;99.90;;;;;;2097398;28;20224;-73
2022/01/27 02:50:18;;;;;;;7.10;2.17;;;-5.10;99.90;;;;;;2080752;28;20284;-73
2022/01/27 02:51:19;;;;;;;3.50;2.08;;;-5.10;99.90;;;;;;2089229;28;20179;-73
2022/01/27 02:52:21;;;;;;;2.33;1.97;;;-5.10;99.90;;;;;;2097400;28;20215;-73
2022/01/27 02:53:21;;;;;;;2.53;1.48;;;-5.10;99.90;;;;;;2089382;28;20697;-75
2022/01/27 02:54:22;;;;;;;3.67;2.20;;;-5.20;99.90;;;;;;2088870;28;20189;-74
2022/01/27 02:55:23;;;;;;;4.32;2.50;;;-5.20;99.90;;;;;;2097329;28;20180;-73
2022/01/27 02:56:24;;;;;;;5.37;2.67;;;-5.20;99.90;;;;;;2097357;28;20220;-72
2022/01/27 02:57:25;;;;;;;3.53;2.37;;;-5.20;99.90;;;;;;2089078;28;20203;-73
2022/01/27 02:58:25;;;;;;;2.97;1.80;;;-5.30;99.90;;;;;;2089069;28;20591;-72
2022/01/27 02:59:26;;;;;;;2.80;1.80;;;-5.30;99.90;;;;;;2097129;28;20198;-73
2022/01/27 03:00:27;;;;;;;3.90;2.23;;;-5.30;99.90;;;;;;2097190;28;20676;-72
2022/01/27 03:01:28;;;;;;;2.50;1.90;;;-5.30;99.90;;;;;;2097379;28;20176;-72
2022/01/27 03:02:28;;;;;;;3.73;1.90;;;-5.30;99.90;;;;;;2097998;28;20179;-73
2022/01/27 03:03:29;;;;;;;2.93;1.60;;;-5.30;99.90;;;;;;2097235;28;20184;-73
2022/01/27 03:04:30;;;;;;;2.57;1.80;;;-5.30;99.90;;;;;;2097336;28;20172;-73
2022/01/27 03:05:31;;;;;;;2.80;1.73;;;-5.30;99.90;;;;;;2098865;28;20232;-73
2022/01/27 03:06:32;;;;;;;3.13;1.73;;;-5.20;99.90;;;;;;2098839;28;20184;-72
2022/01/27 03:07:33;;;;;;;2.53;1.92;;;-5.20;99.90;;;;;;2098926;28;20178;-73
2022/01/27 03:08:33;;;;;;;3.50;1.80;;;-5.20;99.90;;;;;;2090403;28;20231;-73
2022/01/27 03:09:35;;;;;;;4.03;1.80;;;-5.20;99.90;;;;;;2082094;28;20262;-72
2022/01/27 03:10:43;;;;;;;3.28;1.67;;;-5.10;99.90;;;;;;2090434;28;20259;-72
2022/01/27 03:11:50;;;;;;;3.22;1.90;;;-5.20;99.90;;;;;;2091471;28;20700;-71
2022/01/27 03:12:57;;;;;;;3.72;1.73;;;-5.30;99.90;;;;;;2091198;28;20199;-72
2022/01/27 03:13:57;;;;;;;3.45;2.03;;;-5.30;99.90;;;;;;2091372;28;20187;-72
2022/01/27 03:14:58;;;;;;;3.07;1.80;;;-5.30;99.90;;;;;;2098648;28;20230;-72
2022/01/27 03:15:59;;;;;;;1.93;1.30;;;-5.30;99.90;;;;;;2098584;28;20196;-72
2022/01/27 03:17:01;;;;;;;2.57;1.70;;;-5.20;99.90;;;;;;2098731;28;20696;-73
2022/01/27 03:18:02;;;;;;;2.72;1.65;;;-5.30;99.90;;;;;;2098581;28;20179;-73
2022/01/27 03:19:03;;;;;;;2.47;1.43;;;-5.30;99.90;;;;;;2090096;28;20180;-73
2022/01/27 03:20:05;;;;;;;1.80;1.43;;;-5.20;99.90;;;;;;2098590;28;20666;-73
2022/01/27 03:21:09;;;;;;;2.28;1.65;;;-5.30;99.90;;;;;;2098561;28;20183;-73
2022/01/27 03:22:10;;;;;;;4.90;1.70;;;-5.30;99.90;;;;;;2082685;28;20189;-74
2022/01/27 03:23:11;;;;;;;2.72;1.90;;;-5.30;99.90;;;;;;2082508;28;20267;-74
2022/01/27 03:24:11;;;;;;;3.57;1.80;;;-5.30;99.90;;;;;;2098841;28;20186;-73
2022/01/27 03:25:12;;;;;;;2.37;1.60;;;-5.30;99.90;;;;;;2098617;28;20730;-72
2022/01/27 03:26:13;;;;;;;2.03;1.33;;;-5.30;99.90;;;;;;2098698;28;20626;-73
2022/01/27 03:27:21;;;;;;;2.63;1.97;;;-5.30;99.90;;;;;;2098621;28;20213;-72
2022/01/27 03:28:26;;;;;;;2.90;1.33;;;-5.20;99.90;;;;;;2098854;28;20612;-72
2022/01/27 03:29:27;;;;;;;2.55;1.48;;;-5.20;99.90;;;;;;2098606;28;20164;-72
2022/01/27 03:30:28;;;;;;;2.50;1.73;;;-5.20;99.90;;;;;;2091045;28;20211;-73
2022/01/27 03:31:29;;;;;;;3.73;1.77;;;-5.30;99.90;;;;;;2090244;28;20181;-73
2022/01/27 03:32:29;;;;;;;2.40;1.60;;;-5.30;99.90;;;;;;2098794;28;20583;-73
2022/01/27 03:33:30;;;;;;;4.80;2.47;;;-5.30;99.90;;;;;;2098578;28;20176;-72
2022/01/27 03:34:31;;;;;;;1.80;1.70;;;-5.30;99.90;;;;;;2090556;28;20175;-72
2022/01/27 03:35:32;;;;;;;4.33;1.27;;;-5.30;99.90;;;;;;2090354;28;20274;-73
2022/01/27 03:36:32;;;;;;;1.77;1.20;;;-5.40;99.90;;;;;;2098634;28;20269;-72
2022/01/27 03:37:33;;;;;;;1.53;1.20;;;-5.30;99.90;;;;;;2090307;28;20164;-72
2022/01/27 03:38:34;;;;;;;1.93;1.40;;;-5.30;99.90;;;;;;2082086;28;20239;-73
2022/01/27 03:39:37;;;;;;;1.88;1.25;;;-5.30;99.90;;;;;;2090395;28;20250;-72
2022/01/27 03:40:38;;;;;;;3.15;1.40;;;-5.30;99.90;;;;;;2090639;28;20203;-73
2022/01/27 03:41:46;;;;;;;1.50;1.00;;;-5.30;99.90;;;;;;2090221;28;20605;-73
2022/01/27 03:43:01;;;;;;;2.33;1.15;;;-5.30;99.90;;;;;;2098626;28;20167;-73
2022/01/27 03:44:05;;;;;;;1.75;1.38;;;-5.30;99.90;;;;;;2099143;28;20163;-73
2022/01/27 03:45:06;;;;;;;2.42;1.20;;;-5.30;99.90;;;;;;2086317;28;20181;-72
2022/01/27 03:46:07;;;;;;;1.58;1.40;;;-5.30;99.90;;;;;;2089338;28;20246;-73
2022/01/27 03:47:08;;;;;;;1.30;1.00;;;-5.30;99.90;;;;;;2097596;28;20196;-73
2022/01/27 03:48:08;;;;;;;3.17;1.70;;;-5.30;99.90;;;;;;2099096;28;20187;-73
2022/01/27 03:49:09;;;;;;;2.03;1.30;;;-5.40;99.90;;;;;;2106755;28;20214;-73
2022/01/27 03:50:10;;;;;;;2.07;1.13;;;-5.40;99.90;;;;;;2102812;28;20564;-73
2022/01/27 03:51:11;;;;;;;3.00;1.80;;;-5.30;99.90;;;;;;2098472;28;20188;-73
2022/01/27 03:52:11;;;;;;;2.07;1.20;;;-5.30;99.90;;;;;;2106512;28;20190;-73
2022/01/27 03:53:14;;;;;;;1.50;1.30;;;-5.30;99.90;;;;;;2099030;28;20214;-73
2022/01/27 03:54:15;;;;;;;1.77;0.88;;;-5.30;99.90;;;;;;2099159;28;20190;-72
2022/01/27 03:55:16;;;;;;;1.88;1.33;;;-5.30;99.90;;;;;;2098904;28;20187;-71
2022/01/27 03:56:16;;;;;;;1.52;0.95;;;-5.30;99.90;;;;;;2098202;28;20204;-72
2022/01/27 03:57:17;;;;;;;2.10;1.07;;;-5.40;99.90;;;;;;2089812;28;20182;-72
2022/01/27 03:58:18;;;;;;;2.93;1.50;;;-5.40;99.90;;;;;;2090907;28;20180;-73
2022/01/27 03:59:19;;;;;;;2.20;1.20;;;-5.30;99.90;;;;;;2098342;28;20219;-72
2022/01/27 04:00:19;;;;;;;1.73;1.13;;;-5.40;99.90;;;;;;2106945;28;20567;-72
2022/01/27 04:01:20;;;;;;;1.53;1.10;;;-5.40;99.90;;;;;;2106858;28;20203;-72
2022/01/27 04:02:21;;;;;;;1.23;1.07;;;-5.50;99.90;;;;;;2104480;28;20218;-72
2022/01/27 04:03:22;;;;;;;1.60;0.90;;;-5.40;99.90;;;;;;2098383;28;20164;-72
2022/01/27 04:04:24;;;;;;;1.80;1.60;;;-5.50;99.90;;;;;;2098151;28;20173;-72
2022/01/27 04:05:25;;;;;;;1.58;1.10;;;-5.40;99.90;;;;;;2098269;28;20255;-72
2022/01/27 04:06:35;;;;;;;1.77;1.10;;;-5.40;99.90;;;;;;2082133;28;20185;-74
2022/01/27 04:07:35;;;;;;;1.20;1.10;;;-5.40;99.90;;;;;;2084313;28;20215;-72
2022/01/27 04:08:38;;;;;;;1.57;1.10;;;-5.40;99.90;;;;;;2098431;28;20248;-74
2022/01/27 04:09:39;;;;;;;1.75;1.13;;;-5.40;99.90;;;;;;2098247;28;20180;-73
2022/01/27 04:10:40;;;;;;;0.97;0.77;;;-5.40;99.90;;;;;;2098245;28;20200;-73
2022/01/27 04:11:41;;;;;;;1.87;1.10;;;-5.40;99.90;;;;;;2099073;28;20270;-73
2022/01/27 04:12:42;;;;;;;1.63;1.00;;;-5.40;99.90;;;;;;2098179;28;20603;-72
2022/01/27 04:13:42;;;;;;;1.30;1.20;;;-5.30;99.90;;;;;;2081808;28;20247;-72
2022/01/27 04:14:43;;;;;;;1.57;1.47;;;-5.30;99.90;;;;;;2089899;28;20799;-72
2022/01/27 04:15:45;;;;;;;1.75;1.25;;;-5.30;99.90;;;;;;2089832;28;20196;-72
2022/01/27 04:16:46;;;;;;;1.17;1.00;;;-5.30;99.90;;;;;;2081488;28;20196;-72
2022/01/27 04:17:47;;;;;;;1.20;0.90;;;-5.30;99.90;;;;;;2090357;28;20180;-73
2022/01/27 04:18:48;;;;;;;3.63;1.13;;;-5.40;99.90;;;;;;2098266;28;20242;-73
2022/01/27 04:19:49;;;;;;;1.85;1.13;;;-5.40;99.90;;;;;;2098200;28;20176;-73
2022/01/27 04:20:49;;;;;;;2.37;1.10;;;-5.30;99.90;;;;;;2089868;28;20200;-72
2022/01/27 04:21:50;;;;;;;4.40;1.10;;;-5.40;99.90;;;;;;2098196;28;20214;-72
2022/01/27 04:22:51;;;;;;;1.53;1.07;;;-5.40;99.90;;;;;;2098255;28;20175;-73
2022/01/27 04:23:52;;;;;;;1.10;0.80;;;-5.40;99.90;;;;;;2089971;28;20299;-72
2022/01/27 04:24:53;;;;;;;1.67;0.83;;;-5.30;99.90;;;;;;2098184;28;20426;-74
2022/01/27 04:25:54;;;;;;;1.77;1.00;;;-5.30;99.90;;;;;;2098248;28;20183;-73
2022/01/27 04:27:06;;;;;;;1.48;0.80;;;-5.30;99.90;;;;;;2098267;28;20184;-73
2022/01/27 04:28:10;;;;;;;1.35;0.90;;;-5.20;99.90;;;;;;2098486;28;20247;-74
2022/01/27 04:29:12;;;;;;;1.73;0.90;;;-5.20;99.90;;;;;;2098608;28;20257;-72
2022/01/27 04:30:17;;;;;;;0.98;0.88;;;-5.20;99.90;;;;;;2098198;28;20205;-73
2022/01/27 04:31:17;;;;;;;1.70;1.08;;;-5.20;99.90;;;;;;2090513;28;20165;-72
2022/01/27 04:32:24;;;;;;;0.80;0.80;;;-5.10;99.90;;;;;;2090152;28;20181;-72
2022/01/27 04:33:28;;;;;;;1.58;1.05;;;-5.10;99.90;;;;;;2098116;28;20241;-72
2022/01/27 04:34:31;;;;;;;1.33;0.90;;;-5.10;99.90;;;;;;2098229;28;20245;-72
2022/01/27 04:35:36;;;;;;;1.60;1.00;;;-5.10;99.90;;;;;;2098820;28;20172;-72
2022/01/27 04:36:38;;;;;;;1.92;0.85;;;-5.10;99.90;;;;;;2098201;28;20621;-72
2022/01/27 04:37:43;;;;;;;1.30;0.90;;;-5.10;99.90;;;;;;2098050;28;20207;-72
2022/01/27 04:38:51;;;;;;;1.35;1.00;;;-5.10;99.90;;;;;;2098173;28;20187;-72
2022/01/27 04:40:02;;;;;;;0.80;0.80;;;-5.00;99.90;;;;;;2091305;28;20202;-72
2022/01/27 04:41:24;;;;;;;2.05;1.33;;;-5.00;99.90;;;;;;2082878;28;20211;-73
2022/01/27 04:42:38;;;;;;;1.55;1.13;;;-5.10;99.90;;;;;;2094235;28;20655;-74
2022/01/27 04:44:53;;;;;;;2.42;0.82;;;-5.20;99.90;;;;;;2098188;28;20183;-73
2022/01/27 04:47:04;;;;;;;1.52;1.02;;;-5.20;99.90;;;;;;2091534;28;20203;-74
2022/01/27 04:48:11;;;;;;;1.30;0.90;;;-5.20;99.90;;;;;;2098090;28;20179;-73
2022/01/27 04:49:13;;;;;;;2.70;1.58;;;-5.10;99.90;;;;;;2083341;28;20177;-73
2022/01/27 04:50:13;;;;;;;4.05;2.45;;;-5.10;99.90;;;;;;2082588;28;20673;-74
2022/01/27 04:51:17;;;;;;;2.83;1.93;;;-5.10;99.90;;;;;;2089766;28;20177;-73
2022/01/27 04:52:18;;;;;;;3.30;1.48;;;-5.10;99.90;;;;;;2098027;28;20251;-73
2022/01/27 04:53:29;;;;;;;6.70;3.80;;;-5.10;99.90;;;;;;2097989;28;20175;-73
2022/01/27 04:54:40;;;;;;;7.28;4.07;;;-5.10;99.90;;;;;;2097859;28;20543;-74
2022/01/27 04:55:41;;;;;;;4.85;3.28;;;-5.10;99.90;;;;;;2098425;28;20217;-73
2022/01/27 04:56:42;;;;;;;5.70;3.30;;;-5.10;99.90;;;;;;2097812;28;20183;-74
2022/01/27 04:57:45;;;;;;;5.28;2.63;;;-5.10;99.90;;;;;;2097868;28;20239;-73
2022/01/27 04:58:49;;;;;;;3.60;2.92;;;-5.10;99.90;;;;;;2098506;28;20176;-73
2022/01/27 04:59:50;;;;;;;5.22;3.00;;;-5.20;99.90;;;;;;2097992;28;20187;-73
2022/01/27 05:00:52;;;;;;;5.90;3.37;;;-5.30;99.90;;;;;;2089890;28;20240;-73
2022/01/27 05:02:03;;;;;;;4.40;2.97;;;-5.30;99.90;;;;;;2097880;28;20172;-73
2022/01/27 05:03:14;;;;;;;3.85;2.65;;;-5.30;99.90;;;;;;2097763;28;20184;-73
2022/01/27 05:04:18;;;;;;;5.10;3.40;;;-5.20;99.90;;;;;;2097913;28;20175;-73
2022/01/27 05:05:21;;;;;;;5.88;4.35;;;-5.20;99.90;;;;;;2097745;28;20204;-73
2022/01/27 05:06:21;;;;;;;4.50;3.72;;;-5.20;99.90;;;;;;2090287;28;20370;-73
2022/01/27 05:07:22;;;;;;;7.07;3.67;;;-5.20;99.90;;;;;;2089667;28;20211;-74
2022/01/27 05:08:23;;;;;;;6.53;4.00;;;-5.10;99.90;;;;;;2089293;28;20188;-73
2022/01/27 05:09:24;;;;;;;8.63;4.68;;;-5.20;99.90;;;;;;2080923;28;20197;-73
2022/01/27 05:10:30;;;;;;;8.43;3.63;;;-5.30;99.90;;;;;;2080928;28;20200;-72
2022/01/27 05:13:06;;;;;;;8.48;3.58;;;-5.30;99.90;;;;;;2074213;28;20202;-73
2022/01/27 05:14:16;;;;;;;7.80;4.20;;;-5.30;99.90;;;;;;2093977;28;20168;-73
2022/01/27 05:15:18;;;;;;;7.47;3.97;;;-5.40;99.90;;;;;;2097715;28;20164;-73
2022/01/27 05:16:19;;;;;;;7.43;5.63;;;-5.40;99.90;;;;;;2097449;28;20211;-73
2022/01/27 05:17:19;;;;;;;6.53;4.35;;;-5.40;99.90;;;;;;2097496;28;20213;-73
2022/01/27 05:18:21;;;;;;;4.77;4.17;;;-5.50;99.90;;;;;;2098222;28;20176;-73
2022/01/27 05:19:21;;;;;;;4.95;3.47;;;-5.60;99.90;;;;;;2097931;28;20178;-73
2022/01/27 05:20:22;;;;;;;5.47;3.60;;;-5.60;99.90;;;;;;2098095;28;20195;-74
2022/01/27 05:21:23;;;;;;;3.67;2.90;;;-5.60;99.90;;;;;;2098087;28;20176;-73
2022/01/27 05:22:24;;;;;;;4.53;3.30;;;-5.50;99.90;;;;;;2098155;28;20644;-73
2022/01/27 05:23:25;;;;;;;5.03;2.97;;;-5.50;99.90;;;;;;2097482;28;20179;-73
2022/01/27 05:24:25;;;;;;;3.93;2.63;;;-5.50;99.90;;;;;;2097378;28;20164;-73
2022/01/27 05:25:26;;;;;;;3.07;2.43;;;-5.60;99.90;;;;;;2097249;28;20507;-73
2022/01/27 05:26:27;;;;;;;4.03;2.13;;;-5.60;99.90;;;;;;2097212;28;20182;-73
2022/01/27 05:27:28;;;;;;;2.35;1.77;;;-5.60;99.90;;;;;;2097396;28;20176;-73
2022/01/27 05:28:28;;;;;;;3.40;2.13;;;-5.60;99.90;;;;;;2088317;28;20180;-74
2022/01/27 05:29:29;;;;;;;2.23;1.70;;;-5.60;99.90;;;;;;2089016;28;20184;-73
2022/01/27 05:30:30;;;;;;;1.83;1.47;;;-5.60;99.90;;;;;;2080699;28;20287;-73
2022/01/27 05:31:30;;;;;;;2.00;1.40;;;-5.60;99.90;;;;;;2089159;28;20207;-74
2022/01/27 05:32:34;;;;;;;1.43;1.33;;;-5.70;99.90;;;;;;2097408;28;20664;-73
2022/01/27 05:33:35;;;;;;;2.03;1.30;;;-5.60;99.90;;;;;;2089502;28;20180;-74
2022/01/27 05:34:35;;;;;;;1.70;1.20;;;-5.60;99.90;;;;;;2097177;28;20180;-73
2022/01/27 05:35:36;;;;;;;1.70;1.40;;;-5.60;99.90;;;;;;2097446;28;20175;-72
2022/01/27 05:36:37;;;;;;;2.03;1.20;;;-5.50;99.90;;;;;;2097340;28;20203;-73
2022/01/27 05:37:38;;;;;;;1.83;1.10;;;-5.50;99.90;;;;;;2097379;28;20432;-73
2022/01/27 05:38:39;;;;;;;2.67;1.50;;;-5.50;99.90;;;;;;2097316;28;20172;-74
2022/01/27 05:39:39;;;;;;;1.40;1.30;;;-5.50;99.90;;;;;;2097289;28;20172;-72
2022/01/27 05:40:41;;;;;;;3.20;1.63;;;-5.60;99.90;;;;;;2080607;28;20201;-73
2022/01/27 05:41:43;;;;;;;3.42;1.60;;;-5.50;99.90;;;;;;2089336;28;20226;-73
2022/01/27 05:42:43;;;;;;;2.17;1.15;;;-5.50;99.90;;;;;;2080663;28;20181;-73
2022/01/27 05:43:44;;;;;;;0.97;0.90;;;-5.40;99.90;;;;;;2089186;28;20196;-73
2022/01/27 05:44:45;;;;;;;1.50;1.00;;;-5.50;99.90;;;;;;2096690;28;20176;-74
2022/01/27 05:45:45;;;;;;;1.23;1.13;;;-5.50;99.90;;;;;;2097333;28;20508;-73
2022/01/27 05:46:46;;;;;;;1.30;1.10;;;-5.50;99.90;;;;;;2097898;28;20179;-73
2022/01/27 05:47:47;;;;;;;3.27;1.60;;;-5.40;99.90;;;;;;2097375;28;20168;-74
2022/01/27 05:48:47;;;;;;;1.67;1.30;;;-5.40;99.90;;;;;;2097363;28;20316;-73
2022/01/27 05:49:48;;;;;;;2.10;1.27;;;-5.40;99.90;;;;;;2098122;28;20172;-73
2022/01/27 05:50:49;;;;;;;2.23;1.43;;;-5.40;99.90;;;;;;2097816;28;20249;-74
2022/01/27 05:51:50;;;;;;;1.30;1.20;;;-5.50;99.90;;;;;;2105549;28;20175;-73
2022/01/27 05:52:50;;;;;;;1.33;1.10;;;-5.50;99.90;;;;;;2097304;28;20167;-73
2022/01/27 05:53:51;;;;;;;2.73;1.30;;;-5.50;99.90;;;;;;2097391;28;20182;-75
2022/01/27 05:54:52;;;;;;;2.27;1.30;;;-5.50;99.90;;;;;;2088817;28;20176;-73
2022/01/27 05:55:52;;;;;;;2.03;1.13;;;-5.50;99.90;;;;;;2097276;28;20269;-73
2022/01/27 05:56:53;;;;;;;1.83;1.20;;;-5.50;99.90;;;;;;2097795;28;20186;-73
2022/01/27 05:57:54;;;;;;;1.57;1.07;;;-5.50;99.90;;;;;;2097238;28;20618;-72
2022/01/27 05:58:54;;;;;;;4.43;1.40;;;-5.60;99.90;;;;;;2097112;28;20183;-73
2022/01/27 05:59:55;;;;;;;2.40;1.13;;;-5.50;99.90;;;;;;2097859;28;20636;-73
2022/01/27 06:00:56;;;;;;;2.00;1.07;;;-5.50;99.90;;;;;;2097913;28;20667;-72
2022/01/27 06:01:57;;;;;;;1.47;0.93;;;-5.50;99.90;;;;;;2097938;28;20628;-72
2022/01/27 06:02:58;;;;;;;1.63;0.90;;;-5.50;99.90;;;;;;2097777;28;20187;-74
2022/01/27 06:03:59;;;;;;;1.02;0.93;;;-5.50;99.90;;;;;;2097280;28;20180;-73
2022/01/27 06:05:02;;;;;;;1.27;1.00;;;-5.50;99.90;;;;;;2097145;28;20625;-73
2022/01/27 06:06:03;;;;;;;1.42;0.88;;;-5.40;99.90;;;;;;2097281;28;20182;-73